Time;durP1;ratioP1;P1;durP2;ratioP2;P2;SDS_P1;SDS_P2;PMS_P1;PMS_P2;Temp;Humidity;BMP_temperature;BMP_pressure;BME280_temperature;BME280_humidity;BME280_pressure;Samples;Min_cycle;Max_cycle;Signal;HPM_P1;HPM_P2
2022/05/10 00:01:20;;;;;;;18.50;7.63;;;17.00;99.90;;;;;;5053033;28;20159;-53
2022/05/10 00:03:46;;;;;;;22.30;8.45;;;17.00;99.90;;;;;;5052487;28;20237;-53
2022/05/10 00:06:12;;;;;;;16.33;7.88;;;17.00;99.90;;;;;;5052643;28;20199;-53
2022/05/10 00:08:39;;;;;;;27.63;8.90;;;16.90;99.90;;;;;;5052813;28;20242;-53
2022/05/10 00:11:05;;;;;;;15.63;8.25;;;17.00;99.90;;;;;;5052863;28;20221;-53
2022/05/10 00:13:30;;;;;;;21.90;8.30;;;17.00;99.90;;;;;;5052733;28;20178;-53
2022/05/10 00:15:56;;;;;;;17.17;8.18;;;17.00;99.90;;;;;;5052491;28;20628;-53
2022/05/10 00:18:24;;;;;;;23.73;9.60;;;17.00;99.90;;;;;;5052484;28;20687;-53
2022/05/10 00:20:50;;;;;;;25.17;9.07;;;16.90;99.90;;;;;;5052249;28;20171;-53
2022/05/10 00:23:16;;;;;;;20.65;8.82;;;16.90;99.90;;;;;;5052346;28;20186;-53
2022/05/10 00:25:42;;;;;;;18.83;8.55;;;16.80;99.90;;;;;;5052526;28;20163;-53
2022/05/10 00:28:07;;;;;;;17.38;8.98;;;16.80;99.90;;;;;;5052451;28;20194;-53
2022/05/10 00:30:33;;;;;;;16.13;9.63;;;16.80;99.90;;;;;;5052196;28;20252;-53
2022/05/10 00:32:59;;;;;;;16.33;8.80;;;16.70;99.90;;;;;;5052155;28;20650;-53
2022/05/10 00:35:27;;;;;;;14.27;8.98;;;16.70;99.90;;;;;;5052156;28;20171;-53
2022/05/10 00:37:57;;;;;;;15.35;9.38;;;16.70;99.90;;;;;;5051672;28;20186;-53
2022/05/10 00:40:27;;;;;;;18.42;8.85;;;16.70;99.90;;;;;;5050748;28;20702;-53
2022/05/10 00:43:03;;;;;;;16.50;10.00;;;16.60;99.90;;;;;;5052038;28;20210;-53
2022/05/10 00:45:54;;;;;;;13.27;9.75;;;16.60;99.90;;;;;;5051940;28;20705;-53
2022/05/10 00:48:47;;;;;;;16.13;9.07;;;16.70;99.90;;;;;;5051866;28;20296;-53
2022/05/10 00:51:18;;;;;;;18.92;9.43;;;16.60;99.90;;;;;;5052172;28;20246;-53
2022/05/10 00:53:56;;;;;;;18.75;10.02;;;16.60;99.90;;;;;;5051867;28;20167;-53
2022/05/10 00:56:36;;;;;;;14.30;9.30;;;16.60;99.90;;;;;;5052131;28;20245;-53
2022/05/10 00:59:07;;;;;;;17.25;10.57;;;16.60;99.90;;;;;;5050559;28;20617;-53
2022/05/10 01:01:34;;;;;;;14.25;8.93;;;16.50;99.90;;;;;;5051851;28;20175;-53
2022/05/10 01:04:17;;;;;;;13.32;9.75;;;16.50;99.90;;;;;;5051698;28;20328;-53
2022/05/10 01:06:50;;;;;;;16.98;9.55;;;16.50;99.90;;;;;;5052040;28;20507;-53
2022/05/10 01:09:46;;;;;;;12.02;9.13;;;16.40;99.90;;;;;;5051725;28;20667;-53
2022/05/10 01:12:41;;;;;;;15.48;9.65;;;16.40;99.90;;;;;;5052017;28;20175;-53
2022/05/10 01:15:12;;;;;;;14.50;9.63;;;16.40;99.90;;;;;;5049952;28;20249;-52
2022/05/10 01:17:38;;;;;;;17.65;9.85;;;16.40;99.90;;;;;;5052012;28;20171;-52
2022/05/10 01:20:06;;;;;;;14.85;9.43;;;16.30;99.90;;;;;;5052169;28;20186;-52
2022/05/10 01:23:09;;;;;;;17.67;10.20;;;16.40;99.90;;;;;;5051965;28;20178;-53
2022/05/10 01:25:43;;;;;;;14.93;10.43;;;16.30;99.90;;;;;;5051949;28;20162;-53
2022/05/10 01:28:33;;;;;;;17.70;9.85;;;16.30;99.90;;;;;;5051572;28;20216;-53
2022/05/10 01:31:03;;;;;;;13.35;9.95;;;16.20;99.90;;;;;;5051861;28;20166;-53
2022/05/10 01:33:36;;;;;;;15.93;10.45;;;16.10;99.90;;;;;;5051518;28;20528;-53
2022/05/10 01:36:24;;;;;;;15.10;10.02;;;16.00;99.90;;;;;;5051825;28;20158;-53
2022/05/10 01:38:54;;;;;;;14.18;10.43;;;16.00;99.90;;;;;;5051480;28;20663;-53
2022/05/10 01:41:34;;;;;;;14.23;10.13;;;15.80;99.90;;;;;;5051575;28;20179;-53
2022/05/10 01:44:20;;;;;;;17.10;9.68;;;15.80;99.90;;;;;;5051537;28;20206;-54
2022/05/10 01:46:49;;;;;;;12.93;10.25;;;15.80;99.90;;;;;;5051426;28;20162;-53
2022/05/10 01:49:31;;;;;;;15.82;10.20;;;15.70;99.90;;;;;;5052409;28;20198;-54
2022/05/10 01:52:18;;;;;;;12.65;9.88;;;15.80;99.90;;;;;;5055156;28;20643;-53
2022/05/10 01:54:46;;;;;;;15.10;9.93;;;15.70;99.90;;;;;;5055131;28;20183;-53
2022/05/10 01:57:16;;;;;;;12.65;10.10;;;15.70;99.90;;;;;;5055311;28;20212;-53
2022/05/10 01:59:48;;;;;;;15.75;9.52;;;15.70;99.90;;;;;;5054971;28;20174;-53
2022/05/10 02:02:18;;;;;;;13.32;9.73;;;15.80;99.90;;;;;;5054906;28;20167;-53
2022/05/10 02:04:46;;;;;;;14.70;10.07;;;15.80;99.90;;;;;;5055084;28;20170;-53
2022/05/10 02:07:17;;;;;;;10.82;9.40;;;15.80;99.90;;;;;;5054868;28;20197;-53
2022/05/10 02:09:46;;;;;;;16.05;10.32;;;15.70;99.90;;;;;;5054877;28;20183;-53
2022/05/10 02:12:16;;;;;;;15.65;9.75;;;15.80;99.90;;;;;;5054759;28;20174;-53
2022/05/10 02:14:52;;;;;;;17.25;9.68;;;15.80;99.90;;;;;;5054789;28;20166;-53
2022/05/10 02:17:36;;;;;;;16.42;9.52;;;15.70;99.90;;;;;;5054734;28;20181;-53
2022/05/10 02:20:29;;;;;;;15.65;9.32;;;15.70;99.90;;;;;;5054647;28;20174;-53
2022/05/10 02:23:07;;;;;;;15.85;10.00;;;15.70;99.90;;;;;;5054851;28;20547;-53
2022/05/10 02:25:37;;;;;;;11.60;8.85;;;15.70;99.90;;;;;;5054571;28;20155;-53
2022/05/10 02:28:12;;;;;;;10.93;9.30;;;15.60;99.90;;;;;;5054388;28;20566;-53
2022/05/10 02:30:38;;;;;;;12.52;9.52;;;15.60;99.90;;;;;;5054767;28;20213;-53
2022/05/10 02:33:09;;;;;;;15.73;9.48;;;15.60;99.90;;;;;;5054458;28;20198;-53
2022/05/10 02:35:49;;;;;;;15.23;10.40;;;15.60;99.90;;;;;;5055014;28;20190;-53
2022/05/10 02:38:18;;;;;;;15.98;11.25;;;15.60;99.90;;;;;;5054315;28;20171;-53
2022/05/10 02:40:45;;;;;;;18.95;9.25;;;15.50;99.90;;;;;;5054307;28;20171;-53
2022/05/10 02:43:17;;;;;;;13.35;10.13;;;15.60;99.90;;;;;;5054227;28;20167;-52
2022/05/10 02:45:43;;;;;;;14.15;9.88;;;15.60;99.90;;;;;;5054208;28;20177;-53
2022/05/10 02:48:19;;;;;;;14.50;10.35;;;15.60;99.90;;;;;;5054296;28;20668;-52
2022/05/10 02:50:44;;;;;;;17.70;10.35;;;15.50;99.90;;;;;;5054071;28;20174;-53
2022/05/10 02:53:10;;;;;;;17.33;10.40;;;15.50;99.90;;;;;;5054036;28;20250;-52
2022/05/10 02:55:42;;;;;;;13.25;10.50;;;15.60;99.90;;;;;;5054352;28;20241;-52
2022/05/10 02:58:31;;;;;;;14.07;9.43;;;15.60;99.90;;;;;;5054244;28;20154;-52
2022/05/10 03:01:10;;;;;;;13.55;10.25;;;15.50;99.90;;;;;;5043041;28;20190;-52
2022/05/10 03:03:36;;;;;;;11.23;9.13;;;15.50;99.90;;;;;;5054014;28;20587;-53
2022/05/10 03:06:03;;;;;;;12.23;9.13;;;15.60;99.90;;;;;;5053791;28;20171;-52
2022/05/10 03:08:28;;;;;;;13.00;10.07;;;15.60;99.90;;;;;;5053615;28;20218;-53
2022/05/10 03:10:54;;;;;;;12.98;9.75;;;15.50;99.90;;;;;;5053726;28;20182;-53
2022/05/10 03:13:19;;;;;;;13.95;10.25;;;15.50;99.90;;;;;;5053651;28;20250;-53
2022/05/10 03:15:45;;;;;;;12.85;10.00;;;15.40;99.90;;;;;;5053896;28;20266;-53
2022/05/10 03:18:11;;;;;;;11.38;9.95;;;15.40;99.90;;;;;;5053817;28;20655;-53
2022/05/10 03:20:37;;;;;;;16.95;9.82;;;15.40;99.90;;;;;;5054025;28;20175;-53
2022/05/10 03:23:03;;;;;;;14.88;9.45;;;15.40;99.90;;;;;;5053478;28;20178;-53
2022/05/10 03:25:31;;;;;;;12.13;10.35;;;15.30;99.90;;;;;;5053411;28;20249;-53
2022/05/10 03:27:59;;;;;;;12.20;9.43;;;15.40;99.90;;;;;;5053628;28;20206;-52
2022/05/10 03:30:25;;;;;;;11.88;9.77;;;15.30;99.90;;;;;;5053613;28;20174;-53
2022/05/10 03:32:51;;;;;;;13.27;9.65;;;15.30;99.90;;;;;;5053358;28;20217;-53
2022/05/10 03:35:16;;;;;;;13.05;9.63;;;15.30;99.90;;;;;;5053534;28;20213;-53
2022/05/10 03:37:43;;;;;;;10.70;9.25;;;15.30;99.90;;;;;;5053431;28;20190;-53
2022/05/10 03:40:09;;;;;;;14.48;9.93;;;15.30;99.90;;;;;;5053384;28;20733;-53
2022/05/10 03:42:42;;;;;;;14.52;9.70;;;15.30;99.90;;;;;;5053468;28;20170;-53
2022/05/10 03:45:08;;;;;;;15.68;10.10;;;15.30;99.90;;;;;;5053362;28;20670;-52
2022/05/10 03:47:34;;;;;;;14.00;9.82;;;15.70;99.90;;;;;;5053429;28;20190;-52
2022/05/10 03:49:59;;;;;;;10.98;9.88;;;15.20;99.90;;;;;;5052991;28;20182;-52
2022/05/10 03:52:26;;;;;;;14.95;10.02;;;15.20;99.90;;;;;;5052959;28;20167;-52
2022/05/10 03:54:51;;;;;;;10.93;8.85;;;15.10;99.90;;;;;;5052954;28;20170;-53
2022/05/10 03:57:17;;;;;;;12.48;9.25;;;15.10;99.90;;;;;;5052783;28;20167;-53
2022/05/10 03:59:42;;;;;;;16.35;10.13;;;15.00;99.90;;;;;;5052863;28;20240;-52
2022/05/10 04:02:13;;;;;;;14.02;10.02;;;14.90;99.90;;;;;;5053238;28;20209;-53
2022/05/10 04:04:39;;;;;;;12.32;9.27;;;14.80;99.90;;;;;;5053350;28;20590;-52
2022/05/10 04:07:05;;;;;;;12.82;9.82;;;14.80;99.90;;;;;;5052999;28;20315;-53
2022/05/10 04:09:31;;;;;;;14.80;9.88;;;14.80;99.90;;;;;;5052731;28;20260;-53
2022/05/10 04:11:57;;;;;;;15.65;9.90;;;14.80;99.90;;;;;;5051815;28;20163;-53
2022/05/10 04:14:23;;;;;;;17.23;10.52;;;14.80;99.90;;;;;;5052485;28;20535;-53
2022/05/10 04:16:49;;;;;;;13.75;9.38;;;14.90;99.90;;;;;;5052465;28;20163;-53
2022/05/10 04:19:14;;;;;;;16.42;10.70;;;14.90;99.90;;;;;;5052480;28;20197;-53
2022/05/10 04:21:40;;;;;;;12.23;10.18;;;14.90;99.90;;;;;;5051863;28;20175;-52
2022/05/10 04:24:06;;;;;;;16.90;10.35;;;14.90;99.90;;;;;;5052725;28;20178;-53
2022/05/10 04:26:31;;;;;;;11.70;9.30;;;15.10;99.90;;;;;;5052400;28;20663;-52
2022/05/10 04:28:57;;;;;;;17.27;9.80;;;15.00;99.90;;;;;;5052208;28;20225;-53
2022/05/10 04:31:23;;;;;;;10.90;9.32;;;15.00;99.90;;;;;;5052314;28;20200;-52
2022/05/10 04:33:49;;;;;;;11.82;10.55;;;15.00;99.90;;;;;;5052486;28;20252;-53
2022/05/10 04:36:14;;;;;;;11.95;9.65;;;15.10;99.90;;;;;;5052174;28;20512;-53
2022/05/10 04:38:40;;;;;;;14.48;9.57;;;15.10;99.90;;;;;;5052140;28;20193;-53
2022/05/10 04:41:40;;;;;;;12.90;10.00;;;15.20;99.90;;;;;;5052328;28;20173;-52
2022/05/10 04:44:02;;;;;;;12.60;8.75;;;15.20;99.90;;;;;;5050843;28;20189;-53
2022/05/10 04:46:30;;;;;;;13.43;9.73;;;15.20;99.90;;;;;;5052000;28;20212;-53
2022/05/10 04:48:56;;;;;;;12.85;10.20;;;15.40;99.90;;;;;;5051840;28;20578;-53
2022/05/10 04:51:22;;;;;;;16.02;9.98;;;15.40;99.90;;;;;;5052076;28;20595;-52
2022/05/10 04:53:48;;;;;;;15.88;9.68;;;15.50;99.90;;;;;;5051852;28;20202;-53
2022/05/10 04:56:14;;;;;;;18.30;9.32;;;15.50;99.90;;;;;;5051889;28;20509;-53
2022/05/10 04:58:40;;;;;;;11.65;9.63;;;15.50;99.90;;;;;;5051878;28;20166;-53
2022/05/10 05:01:08;;;;;;;11.90;10.63;;;15.50;99.90;;;;;;5052049;28;20178;-53
2022/05/10 05:03:35;;;;;;;12.18;9.90;;;15.60;99.90;;;;;;5051795;28;20222;-53
2022/05/10 05:06:01;;;;;;;11.93;10.68;;;15.60;99.90;;;;;;5051750;28;20627;-53
2022/05/10 05:08:27;;;;;;;13.40;9.75;;;15.60;99.90;;;;;;5052025;28;20275;-53
2022/05/10 05:10:56;;;;;;;11.77;9.30;;;15.70;99.90;;;;;;5051790;28;20691;-53
2022/05/10 05:13:22;;;;;;;11.00;9.80;;;15.70;99.90;;;;;;5051786;28;20166;-52
2022/05/10 05:15:47;;;;;;;12.13;9.13;;;15.80;99.90;;;;;;5050415;28;20163;-53
2022/05/10 05:18:13;;;;;;;11.38;9.23;;;15.90;99.90;;;;;;5051754;28;20162;-53
2022/05/10 05:20:41;;;;;;;13.05;9.63;;;15.90;99.90;;;;;;5052052;28;20246;-53
2022/05/10 05:23:08;;;;;;;13.93;8.98;;;16.00;99.90;;;;;;5052892;28;20681;-53
2022/05/10 05:25:39;;;;;;;14.77;8.98;;;16.00;99.90;;;;;;5056093;28;20616;-53
2022/05/10 05:28:05;;;;;;;10.02;9.00;;;16.10;99.90;;;;;;5055819;28;20202;-53
2022/05/10 05:30:31;;;;;;;9.60;8.60;;;16.20;99.90;;;;;;5055589;28;20191;-53
2022/05/10 05:32:56;;;;;;;9.65;8.65;;;16.20;99.90;;;;;;5054235;28;20209;-53
2022/05/10 05:35:22;;;;;;;10.65;9.02;;;16.20;99.90;;;;;;5055448;28;20171;-53
2022/05/10 05:37:48;;;;;;;9.93;8.82;;;16.40;99.90;;;;;;5055475;28;20167;-53
2022/05/10 05:40:16;;;;;;;10.23;9.00;;;16.50;99.90;;;;;;5055618;28;20534;-53
2022/05/10 05:42:42;;;;;;;11.27;8.55;;;16.40;99.90;;;;;;5055438;28;20170;-53
2022/05/10 05:45:10;;;;;;;13.60;8.82;;;16.50;99.90;;;;;;5053541;28;20533;-56
2022/05/10 05:47:36;;;;;;;10.00;8.90;;;16.60;99.90;;;;;;5054194;28;20190;-54
2022/05/10 05:50:03;;;;;;;10.77;8.45;;;16.60;99.90;;;;;;5053943;28;20539;-53
2022/05/10 05:52:28;;;;;;;12.23;9.93;;;16.70;99.90;;;;;;5054126;28;20208;-53
2022/05/10 05:54:54;;;;;;;13.80;8.70;;;16.70;99.90;;;;;;5053751;28;20636;-53
2022/05/10 05:57:20;;;;;;;9.30;8.10;;;16.70;99.90;;;;;;5053760;28;20171;-53
2022/05/10 05:59:46;;;;;;;9.20;8.30;;;16.80;99.90;;;;;;5053734;28;20167;-53
2022/05/10 06:02:17;;;;;;;9.88;8.30;;;16.90;99.90;;;;;;5053644;28;20246;-53
2022/05/10 06:04:42;;;;;;;10.70;7.60;;;17.00;99.90;;;;;;5053574;28;20543;-53
2022/05/10 06:07:13;;;;;;;8.68;7.82;;;17.20;99.90;;;;;;5052504;28;20163;-53
2022/05/10 06:09:39;;;;;;;13.43;8.55;;;17.10;99.90;;;;;;5053555;28;20718;-46
2022/05/10 06:12:07;;;;;;;8.68;7.70;;;17.20;99.90;;;;;;5053820;28;20173;-48
2022/05/10 06:14:34;;;;;;;9.82;8.63;;;17.20;99.90;;;;;;5053349;28;20167;-55
2022/05/10 06:17:02;;;;;;;11.13;8.18;;;17.40;99.90;;;;;;5053269;28;20191;-46
2022/05/10 06:19:28;;;;;;;9.80;7.93;;;17.50;99.90;;;;;;5053411;28;20203;-48
2022/05/10 06:21:55;;;;;;;9.45;8.40;;;17.50;99.90;;;;;;5053304;28;20199;-50
2022/05/10 06:24:24;;;;;;;19.98;7.78;;;17.60;99.90;;;;;;5053571;28;20597;-47
2022/05/10 06:26:50;;;;;;;8.80;7.95;;;17.80;99.90;;;;;;5053224;28;20225;-47
2022/05/10 06:29:16;;;;;;;10.07;8.05;;;17.90;99.90;;;;;;5053102;28;20210;-48
2022/05/10 06:31:46;;;;;;;12.65;7.28;;;18.00;99.90;;;;;;5053283;28;20245;-46
2022/05/10 06:34:12;;;;;;;10.95;7.60;;;18.10;99.90;;;;;;5052848;28;20185;-47
2022/05/10 06:36:38;;;;;;;11.57;7.35;;;18.10;99.90;;;;;;5052718;28;20197;-47
2022/05/10 06:39:05;;;;;;;12.85;7.25;;;18.10;99.90;;;;;;5053435;28;20162;-47
2022/05/10 06:41:31;;;;;;;11.32;7.60;;;18.20;99.90;;;;;;5052872;28;20202;-47
2022/05/10 06:44:01;;;;;;;14.55;7.57;;;18.30;99.90;;;;;;5053228;28;20171;-47
2022/05/10 06:46:27;;;;;;;10.48;8.02;;;18.20;99.90;;;;;;5052915;28;20206;-46
2022/05/10 06:48:53;;;;;;;10.43;7.35;;;18.40;99.90;;;;;;5052885;28;20218;-48
2022/05/10 06:51:21;;;;;;;9.15;7.55;;;18.50;99.90;;;;;;5052777;28;20159;-47
2022/05/10 06:53:47;;;;;;;8.40;7.30;;;18.60;99.90;;;;;;5051475;28;20171;-48
2022/05/10 06:56:13;;;;;;;9.13;6.78;;;18.70;99.90;;;;;;5052738;28;20190;-48
2022/05/10 06:58:39;;;;;;;8.02;6.95;;;18.80;99.90;;;;;;5051659;28;20256;-46
2022/05/10 07:01:10;;;;;;;10.45;6.32;;;19.00;99.90;;;;;;5052909;28;20173;-47
2022/05/10 07:03:36;;;;;;;8.38;5.80;;;19.10;99.90;;;;;;5052665;28;20233;-47
2022/05/10 07:06:04;;;;;;;8.80;6.70;;;19.20;99.90;;;;;;5052788;28;20170;-53
2022/05/10 07:08:30;;;;;;;11.13;6.88;;;19.40;99.90;;;;;;5052339;28;20211;-50
2022/05/10 07:10:56;;;;;;;8.20;7.07;;;19.40;99.90;;;;;;5052430;28;20220;-49
2022/05/10 07:13:25;;;;;;;7.10;5.78;;;19.60;99.90;;;;;;5052309;28;20167;-50
2022/05/10 07:15:51;;;;;;;9.50;5.53;;;19.60;99.90;;;;;;5052347;28;20206;-52
2022/05/10 07:18:17;;;;;;;8.60;6.18;;;19.90;99.90;;;;;;5052348;28;20185;-52
2022/05/10 07:20:44;;;;;;;6.80;5.90;;;20.20;99.90;;;;;;5052248;28;20182;-50
2022/05/10 07:23:11;;;;;;;7.35;6.13;;;20.30;99.90;;;;;;5052226;28;20166;-50
2022/05/10 07:25:37;;;;;;;14.55;7.65;;;20.60;99.90;;;;;;5051098;28;20586;-50
2022/05/10 07:28:05;;;;;;;10.73;8.25;;;20.60;99.90;;;;;;5052025;28;20214;-49
2022/05/10 07:30:31;;;;;;;10.10;7.10;;;20.90;99.90;;;;;;5052236;28;20219;-51
2022/05/10 07:32:57;;;;;;;14.07;8.30;;;21.20;99.90;;;;;;5051967;28;20218;-51
2022/05/10 07:38:09;;;;;;;9.43;6.60;;;21.20;99.90;;;;;;5052521;28;20266;-51
2022/05/10 07:40:35;;;;;;;7.57;6.75;;;21.00;99.90;;;;;;5052093;28;20655;-52
2022/05/10 07:43:01;;;;;;;9.43;8.00;;;21.00;99.90;;;;;;5051810;28;20182;-50
2022/05/10 07:45:26;;;;;;;14.35;7.93;;;21.20;99.90;;;;;;5051609;28;20534;-50
2022/05/10 07:47:52;;;;;;;14.40;7.70;;;21.40;99.90;;;;;;5050532;28;20226;-50
2022/05/10 07:50:18;;;;;;;13.63;8.48;;;21.40;99.90;;;;;;5051686;28;20162;-48
2022/05/10 07:52:44;;;;;;;20.23;8.70;;;21.50;99.90;;;;;;5051527;28;20166;-51
2022/05/10 07:55:12;;;;;;;10.20;7.60;;;21.50;99.90;;;;;;5051753;28;20170;-52
2022/05/10 07:57:39;;;;;;;14.68;7.43;;;21.50;99.90;;;;;;5051881;28;20175;-50
2022/05/10 08:00:08;;;;;;;12.77;7.22;;;21.30;99.90;;;;;;5051988;28;20225;-50
2022/05/10 08:02:34;;;;;;;12.23;7.32;;;21.40;99.90;;;;;;5051829;28;20215;-48
2022/05/10 08:05:00;;;;;;;12.02;6.95;;;21.60;99.90;;;;;;5051457;28;20667;-50
2022/05/10 08:07:26;;;;;;;16.20;6.60;;;21.70;99.90;;;;;;5051134;28;20171;-49
2022/05/10 08:09:52;;;;;;;11.32;5.70;;;21.70;99.90;;;;;;5051345;28;20587;-49
2022/05/10 08:12:18;;;;;;;8.00;5.63;;;22.00;99.90;;;;;;5051517;28;20170;-50
2022/05/10 08:14:44;;;;;;;11.80;6.15;;;22.00;99.90;;;;;;5051194;28;20639;-50
2022/05/10 08:17:09;;;;;;;6.75;5.78;;;22.10;99.90;;;;;;5051132;28;20186;-46
2022/05/10 08:19:35;;;;;;;10.05;5.90;;;22.30;99.90;;;;;;5051275;28;20170;-51
2022/05/10 08:22:01;;;;;;;11.77;6.22;;;22.20;99.90;;;;;;5051146;28;20173;-51
2022/05/10 08:24:27;;;;;;;9.95;5.40;;;22.50;99.90;;;;;;5051025;28;20250;-51
2022/05/10 08:26:53;;;;;;;7.50;5.22;;;22.70;99.90;;;;;;5049663;28;20177;-47
2022/05/10 08:29:19;;;;;;;8.85;4.88;;;22.90;99.90;;;;;;5050886;28;20637;-46
2022/05/10 08:31:44;;;;;;;10.15;5.07;;;23.10;99.90;;;;;;5051026;28;20162;-47
2022/05/10 08:34:10;;;;;;;9.30;5.22;;;23.30;99.90;;;;;;5050939;28;20173;-47
2022/05/10 08:36:36;;;;;;;5.70;5.10;;;23.50;99.90;;;;;;5051151;28;20580;-46
2022/05/10 08:39:01;;;;;;;8.50;4.57;;;23.60;99.90;;;;;;5050844;28;20174;-48
2022/05/10 08:41:40;;;;;;;6.53;4.80;;;23.70;99.90;;;;;;5050993;28;20617;-46
2022/05/10 08:44:12;;;;;;;7.07;4.88;;;23.70;99.90;;;;;;5049860;28;20629;-51
2022/05/10 08:46:41;;;;;;;8.48;4.97;;;23.70;99.90;;;;;;5051045;28;20163;-49
2022/05/10 08:49:38;;;;;;;8.70;3.90;;;23.80;99.90;;;;;;5051013;28;20194;-51
2022/05/10 08:52:06;;;;;;;7.88;4.68;;;24.20;99.90;;;;;;5050822;28;20171;-50
2022/05/10 08:54:34;;;;;;;6.45;5.03;;;24.50;99.90;;;;;;5050874;28;20178;-50
2022/05/10 08:57:06;;;;;;;5.78;4.65;;;24.60;99.90;;;;;;5050699;28;20187;-47
2022/05/10 08:59:37;;;;;;;6.75;4.80;;;24.80;99.90;;;;;;5050152;28;20163;-49
2022/05/10 09:02:14;;;;;;;10.95;5.50;;;24.90;99.90;;;;;;5050595;28;20158;-52
2022/05/10 09:04:54;;;;;;;15.05;5.90;;;24.70;99.90;;;;;;5050456;28;20276;-51
2022/05/10 09:07:44;;;;;;;38.22;9.50;;;24.60;99.90;;;;;;5050499;28;20166;-50
2022/05/10 09:10:18;;;;;;;9.02;4.68;;;24.80;99.90;;;;;;5050446;28;20674;-51
2022/05/10 09:12:52;;;;;;;11.45;3.80;;;24.60;99.90;;;;;;5050720;28;20166;-49
2022/05/10 09:15:18;;;;;;;9.18;4.00;;;24.70;99.90;;;;;;5050769;28;20257;-48
2022/05/10 09:17:44;;;;;;;8.20;4.25;;;24.80;99.90;;;;;;5050597;28;20189;-49
2022/05/10 09:20:11;;;;;;;8.65;3.85;;;24.70;99.90;;;;;;5050665;28;20236;-49
2022/05/10 09:23:05;;;;;;;4.13;3.72;;;24.50;99.90;;;;;;5050708;28;20166;-50
2022/05/10 09:25:36;;;;;;;4.97;3.58;;;25.00;99.90;;;;;;5050304;28;20170;-50
2022/05/10 09:28:21;;;;;;;5.93;4.00;;;25.50;99.90;;;;;;5050279;28;20194;-51
2022/05/10 09:36:24;;;;;;;4.18;3.78;;;25.40;99.90;;;;;;5050225;28;20662;-47
2022/05/10 09:38:51;;;;;;;9.65;3.83;;;25.60;99.90;;;;;;5050224;28;20161;-49
2022/05/10 09:41:39;;;;;;;8.98;3.92;;;25.50;99.90;;;;;;5050439;28;20174;-50
2022/05/10 09:44:19;;;;;;;8.60;3.90;;;25.60;99.90;;;;;;5050406;28;20159;-49
2022/05/10 09:46:44;;;;;;;5.10;3.30;;;25.30;99.90;;;;;;5050404;28;20170;-52
2022/05/10 09:49:31;;;;;;;5.88;3.05;;;25.40;99.90;;;;;;5048811;28;20214;-48
2022/05/10 09:51:58;;;;;;;10.45;3.28;;;25.50;97.90;;;;;;5050319;28;20174;-48
2022/05/10 09:54:36;;;;;;;6.65;3.20;;;25.70;98.50;;;;;;5050050;28;20162;-49
2022/05/10 09:57:09;;;;;;;3.55;2.72;;;25.90;96.50;;;;;;5050075;28;20166;-48
2022/05/10 09:59:43;;;;;;;4.10;3.20;;;25.80;94.40;;;;;;5050065;28;20624;-51
2022/05/10 10:02:09;;;;;;;4.20;2.72;;;25.80;94.90;;;;;;5050282;28;20173;-52
2022/05/10 10:04:37;;;;;;;7.78;3.10;;;26.00;95.20;;;;;;5050089;28;20202;-48
2022/05/10 10:07:18;;;;;;;3.28;3.00;;;26.00;94.00;;;;;;5050252;28;20180;-49
2022/05/10 10:09:51;;;;;;;4.80;2.80;;;26.30;92.50;;;;;;5050239;28;20579;-52
2022/05/10 10:12:36;;;;;;;5.00;3.05;;;26.40;91.80;;;;;;5053786;28;20177;-51
2022/05/10 10:15:31;;;;;;;3.55;2.60;;;26.60;92.70;;;;;;5052562;28;20180;-48
2022/05/10 10:18:08;;;;;;;4.47;2.72;;;26.40;91.30;;;;;;5053627;28;20253;-53
2022/05/10 10:20:48;;;;;;;4.28;2.70;;;26.50;90.10;;;;;;5053678;28;20531;-47
2022/05/10 10:23:36;;;;;;;7.32;2.90;;;26.20;88.90;;;;;;5053362;28;20170;-48
2022/05/10 10:26:23;;;;;;;7.20;3.00;;;26.20;90.20;;;;;;5052631;28;20287;-48
2022/05/10 10:28:57;;;;;;;4.38;2.95;;;26.10;88.60;;;;;;5053210;28;20198;-49
2022/05/10 10:31:26;;;;;;;3.80;3.40;;;26.50;90.30;;;;;;5053206;28;20699;-47
2022/05/10 10:34:06;;;;;;;6.22;3.10;;;26.40;90.40;;;;;;5053358;28;20182;-48
2022/05/10 10:36:39;;;;;;;3.78;2.83;;;26.50;90.40;;;;;;5053317;28;20535;-48
2022/05/10 10:39:19;;;;;;;5.70;3.00;;;26.70;92.80;;;;;;5053400;28;20162;-49
2022/05/10 10:42:00;;;;;;;7.70;3.20;;;26.60;90.40;;;;;;5052997;28;20166;-51
2022/05/10 10:44:29;;;;;;;3.50;2.83;;;26.50;88.70;;;;;;5052820;28;20654;-51
2022/05/10 10:47:20;;;;;;;3.10;2.80;;;26.20;90.10;;;;;;5052887;28;20533;-50
2022/05/10 10:50:15;;;;;;;4.50;2.97;;;26.20;89.30;;;;;;5052799;28;20213;-47
2022/05/10 10:52:41;;;;;;;8.60;2.92;;;26.10;88.40;;;;;;5052630;28;20166;-48
2022/05/10 10:55:08;;;;;;;5.50;3.17;;;26.10;90.60;;;;;;5053148;28;20261;-48
2022/05/10 10:58:05;;;;;;;5.85;3.22;;;26.00;89.10;;;;;;5051527;28;20169;-49
2022/05/10 11:00:42;;;;;;;9.77;3.20;;;25.90;90.80;;;;;;5052621;28;20166;-49
2022/05/10 11:03:31;;;;;;;6.05;3.13;;;25.90;89.90;;;;;;5051992;28;20209;-46
2022/05/10 11:06:14;;;;;;;4.47;2.97;;;25.80;90.40;;;;;;5052785;28;20174;-50
2022/05/10 11:08:58;;;;;;;4.22;3.00;;;25.80;90.20;;;;;;5032419;28;20745;-47
2022/05/10 11:11:59;;;;;;;3.45;2.97;;;26.00;91.20;;;;;;5032510;28;20257;-51
2022/05/10 11:15:08;;;;;;;6.32;3.00;;;25.90;90.40;;;;;;5032471;28;20159;-47
2022/05/10 11:17:55;;;;;;;6.78;3.10;;;26.10;90.20;;;;;;5032455;28;20268;-49
2022/05/10 11:20:41;;;;;;;3.38;3.08;;;26.20;90.20;;;;;;5032338;28;20258;-48
2022/05/10 11:23:07;;;;;;;6.13;3.10;;;26.40;90.20;;;;;;5032557;28;20166;-47
2022/05/10 11:26:18;;;;;;;7.57;3.15;;;26.50;88.10;;;;;;5032212;28;20636;-48
2022/05/10 11:29:06;;;;;;;5.30;2.85;;;26.60;87.90;;;;;;5031977;28;20199;-48
2022/05/10 11:31:46;;;;;;;5.75;3.05;;;26.50;87.90;;;;;;5037269;28;20162;-49
2022/05/10 11:34:37;;;;;;;3.85;3.45;;;26.40;87.10;;;;;;5052244;28;20527;-49
2022/05/10 11:37:06;;;;;;;4.93;3.53;;;26.30;87.70;;;;;;5051872;28;20170;-49
2022/05/10 11:40:05;;;;;;;4.22;3.70;;;26.50;89.10;;;;;;5050717;28;20193;-49
2022/05/10 11:42:51;;;;;;;5.68;3.40;;;26.50;88.50;;;;;;5052092;28;20586;-51
2022/05/10 11:45:40;;;;;;;6.47;3.33;;;26.30;88.80;;;;;;5051904;28;20646;-52
2022/05/10 11:48:12;;;;;;;5.20;3.03;;;26.40;87.50;;;;;;5052016;28;20691;-51
2022/05/10 11:54:09;;;;;;;13.50;3.20;;;26.30;85.40;;;;;;5051666;28;20181;-48
2022/05/10 11:56:38;;;;;;;5.20;3.58;;;26.50;87.90;;;;;;5047872;28;20186;-49
2022/05/10 11:59:05;;;;;;;5.97;3.20;;;26.60;86.60;;;;;;5051463;28;20166;-51
2022/05/10 12:01:48;;;;;;;7.47;3.15;;;26.60;86.10;;;;;;5051520;28;20631;-49
2022/05/10 12:04:46;;;;;;;7.82;3.20;;;26.50;87.20;;;;;;5051281;28;20666;-50
2022/05/10 12:07:20;;;;;;;6.40;3.63;;;26.40;82.50;;;;;;5051302;28;20567;-49
2022/05/10 12:09:52;;;;;;;4.35;3.60;;;26.50;84.00;;;;;;5051206;28;20797;-49
2022/05/10 12:12:33;;;;;;;9.10;3.50;;;26.50;84.10;;;;;;5051294;28;20237;-49
2022/05/10 12:21:19;;;;;;;5.63;3.97;;;26.50;85.30;;;;;;5051341;28;20176;-53
2022/05/10 12:24:13;;;;;;;8.30;3.55;;;26.40;87.50;;;;;;5051149;28;20158;-53
2022/05/10 12:26:46;;;;;;;6.03;3.35;;;26.50;88.90;;;;;;5051589;28;20256;-53
2022/05/10 12:29:39;;;;;;;7.05;3.58;;;26.50;87.70;;;;;;5049572;28;20214;-52
2022/05/10 12:32:29;;;;;;;4.38;3.63;;;26.80;86.30;;;;;;5051443;28;20174;-51
2022/05/10 12:35:06;;;;;;;7.50;4.35;;;27.10;85.30;;;;;;5050739;28;20245;-53
2022/05/10 12:37:39;;;;;;;4.13;3.55;;;26.90;86.90;;;;;;5050973;28;20162;-52
2022/05/10 12:40:10;;;;;;;6.57;3.47;;;27.00;85.60;;;;;;5051255;28;20162;-49
2022/05/10 12:43:28;;;;;;;9.00;3.55;;;26.90;85.50;;;;;;5051117;28;20165;-49
2022/05/10 12:45:56;;;;;;;14.27;4.18;;;27.00;85.40;;;;;;5041628;28;20279;-48
2022/05/10 12:48:39;;;;;;;6.57;3.92;;;27.20;85.50;;;;;;5050536;28;20320;-49
2022/05/10 12:51:35;;;;;;;4.70;3.00;;;27.10;82.50;;;;;;5051123;28;20178;-49
2022/05/10 12:54:07;;;;;;;4.60;3.38;;;26.90;80.20;;;;;;5050649;28;20662;-47
2022/05/10 12:56:55;;;;;;;6.10;3.60;;;26.90;83.60;;;;;;5050653;28;20158;-47
2022/05/10 12:59:39;;;;;;;4.40;3.95;;;27.30;82.00;;;;;;5050384;28;20617;-49
2022/05/10 13:02:08;;;;;;;4.40;3.58;;;27.50;82.30;;;;;;5050552;28;20245;-48
2022/05/10 13:04:41;;;;;;;5.00;3.63;;;27.70;81.50;;;;;;5050401;28;20210;-48
2022/05/10 13:07:37;;;;;;;6.18;3.65;;;27.90;81.50;;;;;;5051023;28;20174;-48
2022/05/10 13:10:07;;;;;;;6.45;3.67;;;28.00;82.50;;;;;;5050498;28;20177;-48
2022/05/10 13:12:37;;;;;;;5.18;3.42;;;27.80;81.60;;;;;;5050442;28;20274;-48
2022/05/10 13:15:13;;;;;;;4.00;3.65;;;27.40;84.10;;;;;;5050475;28;20178;-48
2022/05/10 13:17:44;;;;;;;8.55;3.67;;;27.50;84.70;;;;;;5050612;28;20650;-48
2022/05/10 13:20:12;;;;;;;6.88;3.33;;;27.30;85.20;;;;;;5050748;28;20257;-49
2022/05/10 13:22:46;;;;;;;6.65;3.40;;;27.20;83.90;;;;;;5050797;28;20176;-48
2022/05/10 13:25:12;;;;;;;8.27;3.75;;;27.30;84.90;;;;;;5050490;28;20519;-49